sensor_id;sensor_type;location;lat;lon;timestamp;temperature;humidity
23335;DHT22;11839;48.598;8.870;2023-04-03T00:00:34;6.10;99.90
23335;DHT22;11839;48.598;8.870;2023-04-03T00:03:02;6.00;99.90
23335;DHT22;11839;48.598;8.870;2023-04-03T00:05:29;6.00;99.90
23335;DHT22;11839;48.598;8.870;2023-04-03T00:07:56;6.10;99.90
23335;DHT22;11839;48.598;8.870;2023-04-03T00:10:23;6.50;99.90
23335;DHT22;11839;48.598;8.870;2023-04-03T00:12:49;6.80;99.90
23335;DHT22;11839;48.598;8.870;2023-04-03T00:15:16;6.30;99.90
23335;DHT22;11839;48.598;8.870;2023-04-03T00:17:43;5.90;99.90
23335;DHT22;11839;48.598;8.870;2023-04-03T00:20:12;6.10;99.90
23335;DHT22;11839;48.598;8.870;2023-04-03T00:22:39;6.10;99.90
23335;DHT22;11839;48.598;8.870;2023-04-03T00:25:07;6.00;99.90
23335;DHT22;11839;48.598;8.870;2023-04-03T00:27:36;6.20;99.90
23335;DHT22;11839;48.598;8.870;2023-04-03T00:30:04;6.20;99.90
23335;DHT22;11839;48.598;8.870;2023-04-03T00:32:31;6.30;99.90
23335;DHT22;11839;48.598;8.870;2023-04-03T00:34:58;6.30;99.90
23335;DHT22;11839;48.598;8.870;2023-04-03T00:37:26;6.30;99.90
23335;DHT22;11839;48.598;8.870;2023-04-03T00:39:53;6.40;99.90
23335;DHT22;11839;48.598;8.870;2023-04-03T00:42:20;6.40;99.90
23335;DHT22;11839;48.598;8.870;2023-04-03T00:45:25;6.50;99.90
23335;DHT22;11839;48.598;8.870;2023-04-03T00:47:53;6.20;99.90
23335;DHT22;11839;48.598;8.870;2023-04-03T00:50:21;6.40;99.90
23335;DHT22;11839;48.598;8.870;2023-04-03T00:52:49;6.40;99.90
23335;DHT22;11839;48.598;8.870;2023-04-03T00:55:16;6.70;99.90
23335;DHT22;11839;48.598;8.870;2023-04-03T00:57:44;6.60;99.90
23335;DHT22;11839;48.598;8.870;2023-04-03T01:00:14;6.70;99.90
23335;DHT22;11839;48.598;8.870;2023-04-03T01:02:42;6.70;99.90
23335;DHT22;11839;48.598;8.870;2023-04-03T01:05:10;6.70;99.90
23335;DHT22;11839;48.598;8.870;2023-04-03T01:07:38;6.90;99.90
23335;DHT22;11839;48.598;8.870;2023-04-03T01:10:10;6.50;99.90
23335;DHT22;11839;48.598;8.870;2023-04-03T01:12:41;6.20;99.90
23335;DHT22;11839;48.598;8.870;2023-04-03T01:15:10;6.20;99.90
23335;DHT22;11839;48.598;8.870;2023-04-03T01:17:39;6.00;99.90
23335;DHT22;11839;48.598;8.870;2023-04-03T01:20:36;6.00;99.90
23335;DHT22;11839;48.598;8.870;2023-04-03T01:23:17;6.00;99.90
23335;DHT22;11839;48.598;8.870;2023-04-03T01:25:50;5.70;99.90
23335;DHT22;11839;48.598;8.870;2023-04-03T01:28:21;5.90;99.90
23335;DHT22;11839;48.598;8.870;2023-04-03T01:30:51;6.10;99.90
23335;DHT22;11839;48.598;8.870;2023-04-03T01:33:21;6.30;99.90
23335;DHT22;11839;48.598;8.870;2023-04-03T01:35:47;6.30;99.90
23335;DHT22;11839;48.598;8.870;2023-04-03T01:38:14;6.30;99.90
23335;DHT22;11839;48.598;8.870;2023-04-03T01:40:41;6.30;99.90
23335;DHT22;11839;48.598;8.870;2023-04-03T01:43:08;6.00;99.90
23335;DHT22;11839;48.598;8.870;2023-04-03T01:45:35;5.90;99.90
23335;DHT22;11839;48.598;8.870;2023-04-03T01:48:02;5.70;99.90
23335;DHT22;11839;48.598;8.870;2023-04-03T01:50:31;5.30;99.90
23335;DHT22;11839;48.598;8.870;2023-04-03T01:52:58;5.40;99.90
23335;DHT22;11839;48.598;8.870;2023-04-03T01:55:24;5.30;99.90
23335;DHT22;11839;48.598;8.870;2023-04-03T01:57:51;5.10;99.90
23335;DHT22;11839;48.598;8.870;2023-04-03T02:00:18;5.30;99.90
23335;DHT22;11839;48.598;8.870;2023-04-03T02:02:45;5.50;99.90
23335;DHT22;11839;48.598;8.870;2023-04-03T02:05:15;5.70;99.90
23335;DHT22;11839;48.598;8.870;2023-04-03T02:07:43;5.50;99.90
23335;DHT22;11839;48.598;8.870;2023-04-03T02:10:11;5.60;99.90
23335;DHT22;11839;48.598;8.870;2023-04-03T02:12:38;5.60;99.90
23335;DHT22;11839;48.598;8.870;2023-04-03T02:15:05;5.50;99.90
23335;DHT22;11839;48.598;8.870;2023-04-03T02:17:32;5.60;99.90
23335;DHT22;11839;48.598;8.870;2023-04-03T02:19:59;5.60;99.90
23335;DHT22;11839;48.598;8.870;2023-04-03T02:22:26;5.60;99.90
23335;DHT22;11839;48.598;8.870;2023-04-03T02:24:54;5.30;99.90
23335;DHT22;11839;48.598;8.870;2023-04-03T02:27:21;5.30;99.90
23335;DHT22;11839;48.598;8.870;2023-04-03T02:29:48;5.00;99.90
23335;DHT22;11839;48.598;8.870;2023-04-03T02:32:14;4.90;99.90
23335;DHT22;11839;48.598;8.870;2023-04-03T02:34:41;5.00;99.90
23335;DHT22;11839;48.598;8.870;2023-04-03T02:37:08;4.90;99.90
23335;DHT22;11839;48.598;8.870;2023-04-03T02:39:35;5.00;99.90
23335;DHT22;11839;48.598;8.870;2023-04-03T02:42:03;4.70;99.90
23335;DHT22;11839;48.598;8.870;2023-04-03T02:44:30;4.60;99.90
23335;DHT22;11839;48.598;8.870;2023-04-03T02:46:57;4.60;99.90
23335;DHT22;11839;48.598;8.870;2023-04-03T02:49:24;4.60;99.90
23335;DHT22;11839;48.598;8.870;2023-04-03T02:51:50;4.50;99.90
23335;DHT22;11839;48.598;8.870;2023-04-03T02:54:17;4.30;99.90
23335;DHT22;11839;48.598;8.870;2023-04-03T02:56:44;4.40;99.90
23335;DHT22;11839;48.598;8.870;2023-04-03T02:59:12;4.40;99.90
23335;DHT22;11839;48.598;8.870;2023-04-03T03:01:39;4.50;99.90
23335;DHT22;11839;48.598;8.870;2023-04-03T03:04:06;4.40;99.90
23335;DHT22;11839;48.598;8.870;2023-04-03T03:06:33;4.70;99.90
23335;DHT22;11839;48.598;8.870;2023-04-03T03:09:00;4.80;99.90
23335;DHT22;11839;48.598;8.870;2023-04-03T03:11:27;4.70;99.90
23335;DHT22;11839;48.598;8.870;2023-04-03T03:13:54;4.40;99.90
23335;DHT22;11839;48.598;8.870;2023-04-03T03:16:22;4.20;99.90
23335;DHT22;11839;48.598;8.870;2023-04-03T03:18:49;4.20;99.90
23335;DHT22;11839;48.598;8.870;2023-04-03T03:21:16;4.20;99.90
23335;DHT22;11839;48.598;8.870;2023-04-03T03:23:43;4.30;99.90
23335;DHT22;11839;48.598;8.870;2023-04-03T03:26:10;4.20;99.90
23335;DHT22;11839;48.598;8.870;2023-04-03T03:28:39;4.20;99.90
23335;DHT22;11839;48.598;8.870;2023-04-03T03:31:06;4.20;99.90
23335;DHT22;11839;48.598;8.870;2023-04-03T03:33:34;4.50;99.90
23335;DHT22;11839;48.598;8.870;2023-04-03T03:36:01;4.70;99.90
23335;DHT22;11839;48.598;8.870;2023-04-03T03:38:28;4.60;99.90
23335;DHT22;11839;48.598;8.870;2023-04-03T03:40:54;4.70;99.90
23335;DHT22;11839;48.598;8.870;2023-04-03T03:43:21;4.80;99.90
23335;DHT22;11839;48.598;8.870;2023-04-03T03:45:50;4.80;99.90
23335;DHT22;11839;48.598;8.870;2023-04-03T03:48:17;5.00;99.90
23335;DHT22;11839;48.598;8.870;2023-04-03T03:50:46;4.80;99.90
23335;DHT22;11839;48.598;8.870;2023-04-03T03:53:13;4.70;99.90
23335;DHT22;11839;48.598;8.870;2023-04-03T03:55:40;4.70;99.90
23335;DHT22;11839;48.598;8.870;2023-04-03T03:58:07;4.80;99.90
23335;DHT22;11839;48.598;8.870;2023-04-03T04:00:34;4.80;99.90
23335;DHT22;11839;48.598;8.870;2023-04-03T04:03:01;4.80;99.90
23335;DHT22;11839;48.598;8.870;2023-04-03T04:05:28;4.80;99.90
23335;DHT22;11839;48.598;8.870;2023-04-03T04:07:57;5.00;99.90
23335;DHT22;11839;48.598;8.870;2023-04-03T04:10:24;4.90;99.90
23335;DHT22;11839;48.598;8.870;2023-04-03T04:12:51;4.90;99.90
23335;DHT22;11839;48.598;8.870;2023-04-03T04:15:17;4.80;99.90
23335;DHT22;11839;48.598;8.870;2023-04-03T04:17:44;4.90;99.90
23335;DHT22;11839;48.598;8.870;2023-04-03T04:20:11;4.90;99.90
23335;DHT22;11839;48.598;8.870;2023-04-03T04:22:38;4.90;99.90
23335;DHT22;11839;48.598;8.870;2023-04-03T04:25:07;4.90;99.90
23335;DHT22;11839;48.598;8.870;2023-04-03T04:27:34;5.00;99.90
23335;DHT22;11839;48.598;8.870;2023-04-03T04:30:03;5.10;99.90
23335;DHT22;11839;48.598;8.870;2023-04-03T04:32:29;5.00;99.90
23335;DHT22;11839;48.598;8.870;2023-04-03T04:34:56;5.00;99.90
23335;DHT22;11839;48.598;8.870;2023-04-03T04:37:23;5.20;99.90
23335;DHT22;11839;48.598;8.870;2023-04-03T04:39:50;5.30;99.90
23335;DHT22;11839;48.598;8.870;2023-04-03T04:42:18;5.30;99.90
23335;DHT22;11839;48.598;8.870;2023-04-03T04:44:45;5.20;99.90
23335;DHT22;11839;48.598;8.870;2023-04-03T04:47:12;5.10;99.90
23335;DHT22;11839;48.598;8.870;2023-04-03T04:49:38;5.30;99.90
23335;DHT22;11839;48.598;8.870;2023-04-03T04:52:05;5.50;99.90
23335;DHT22;11839;48.598;8.870;2023-04-03T04:54:32;5.50;99.90
23335;DHT22;11839;48.598;8.870;2023-04-03T04:56:59;5.60;99.90
23335;DHT22;11839;48.598;8.870;2023-04-03T04:59:28;5.20;99.90
23335;DHT22;11839;48.598;8.870;2023-04-03T05:01:54;5.40;99.90
23335;DHT22;11839;48.598;8.870;2023-04-03T05:04:21;5.40;99.90
23335;DHT22;11839;48.598;8.870;2023-04-03T05:06:48;5.60;99.90
23335;DHT22;11839;48.598;8.870;2023-04-03T05:09:15;5.50;99.90
23335;DHT22;11839;48.598;8.870;2023-04-03T05:11:42;5.30;99.90
23335;DHT22;11839;48.598;8.870;2023-04-03T05:14:09;5.30;99.90
23335;DHT22;11839;48.598;8.870;2023-04-03T05:16:37;5.60;99.90
23335;DHT22;11839;48.598;8.870;2023-04-03T05:19:04;5.70;99.90
23335;DHT22;11839;48.598;8.870;2023-04-03T05:21:31;5.70;99.90
23335;DHT22;11839;48.598;8.870;2023-04-03T05:23:58;5.80;99.90
23335;DHT22;11839;48.598;8.870;2023-04-03T05:26:28;6.00;99.90
23335;DHT22;11839;48.598;8.870;2023-04-03T05:28:55;6.00;99.90
23335;DHT22;11839;48.598;8.870;2023-04-03T05:31:22;6.00;99.90
23335;DHT22;11839;48.598;8.870;2023-04-03T05:33:50;5.90;99.90
23335;DHT22;11839;48.598;8.870;2023-04-03T05:36:17;5.80;99.90
23335;DHT22;11839;48.598;8.870;2023-04-03T05:38:44;5.80;99.90
23335;DHT22;11839;48.598;8.870;2023-04-03T05:41:11;5.80;99.90
23335;DHT22;11839;48.598;8.870;2023-04-03T05:43:37;5.90;99.90
23335;DHT22;11839;48.598;8.870;2023-04-03T05:46:09;6.00;99.90
23335;DHT22;11839;48.598;8.870;2023-04-03T05:48:36;6.00;99.10
23335;DHT22;11839;48.598;8.870;2023-04-03T05:51:05;5.80;99.70
23335;DHT22;11839;48.598;8.870;2023-04-03T05:53:35;6.00;99.90
23335;DHT22;11839;48.598;8.870;2023-04-03T05:56:02;6.20;99.10
23335;DHT22;11839;48.598;8.870;2023-04-03T05:58:29;6.40;98.70
23335;DHT22;11839;48.598;8.870;2023-04-03T06:00:56;6.30;98.10
23335;DHT22;11839;48.598;8.870;2023-04-03T06:03:23;6.20;97.90
23335;DHT22;11839;48.598;8.870;2023-04-03T06:05:50;6.00;97.80
23335;DHT22;11839;48.598;8.870;2023-04-03T06:08:18;6.10;97.90
23335;DHT22;11839;48.598;8.870;2023-04-03T06:10:45;6.10;97.00
23335;DHT22;11839;48.598;8.870;2023-04-03T06:13:13;6.20;96.90
23335;DHT22;11839;48.598;8.870;2023-04-03T06:15:40;6.20;97.40
23335;DHT22;11839;48.598;8.870;2023-04-03T06:18:07;6.50;97.20
23335;DHT22;11839;48.598;8.870;2023-04-03T06:20:35;6.60;96.60
23335;DHT22;11839;48.598;8.870;2023-04-03T06:23:02;6.50;96.10
23335;DHT22;11839;48.598;8.870;2023-04-03T06:25:30;6.30;96.80
23335;DHT22;11839;48.598;8.870;2023-04-03T06:27:57;6.40;96.40
23335;DHT22;11839;48.598;8.870;2023-04-03T06:30:24;6.40;96.10
23335;DHT22;11839;48.598;8.870;2023-04-03T06:32:51;6.30;96.50
23335;DHT22;11839;48.598;8.870;2023-04-03T06:35:18;6.70;95.70
23335;DHT22;11839;48.598;8.870;2023-04-03T06:37:45;6.60;94.90
23335;DHT22;11839;48.598;8.870;2023-04-03T06:40:17;6.50;94.90
23335;DHT22;11839;48.598;8.870;2023-04-03T06:42:46;6.30;95.50
23335;DHT22;11839;48.598;8.870;2023-04-03T06:45:13;6.20;95.40
23335;DHT22;11839;48.598;8.870;2023-04-03T06:47:40;5.90;95.90
23335;DHT22;11839;48.598;8.870;2023-04-03T06:50:09;5.60;96.60
23335;DHT22;11839;48.598;8.870;2023-04-03T06:52:36;5.90;96.90
23335;DHT22;11839;48.598;8.870;2023-04-03T06:55:05;5.80;96.50
23335;DHT22;11839;48.598;8.870;2023-04-03T06:57:32;5.70;97.20
23335;DHT22;11839;48.598;8.870;2023-04-03T07:00:01;6.00;97.70
23335;DHT22;11839;48.598;8.870;2023-04-03T07:02:28;5.90;97.30
23335;DHT22;11839;48.598;8.870;2023-04-03T07:04:55;6.00;97.60
23335;DHT22;11839;48.598;8.870;2023-04-03T07:07:22;6.30;96.90
23335;DHT22;11839;48.598;8.870;2023-04-03T07:09:49;6.40;97.00
23335;DHT22;11839;48.598;8.870;2023-04-03T07:12:15;5.90;96.70
23335;DHT22;11839;48.598;8.870;2023-04-03T07:14:42;5.70;97.50
23335;DHT22;11839;48.598;8.870;2023-04-03T07:17:10;5.80;97.10
23335;DHT22;11839;48.598;8.870;2023-04-03T07:19:37;5.90;97.10
23335;DHT22;11839;48.598;8.870;2023-04-03T07:22:04;6.20;97.40
23335;DHT22;11839;48.598;8.870;2023-04-03T07:24:31;6.20;97.50
23335;DHT22;11839;48.598;8.870;2023-04-03T07:26:58;6.60;96.50
23335;DHT22;11839;48.598;8.870;2023-04-03T07:29:24;7.40;96.10
23335;DHT22;11839;48.598;8.870;2023-04-03T07:31:51;7.10;95.50
23335;DHT22;11839;48.598;8.870;2023-04-03T07:34:19;7.10;96.30
23335;DHT22;11839;48.598;8.870;2023-04-03T07:36:46;6.90;95.60
23335;DHT22;11839;48.598;8.870;2023-04-03T07:39:14;6.50;95.60
23335;DHT22;11839;48.598;8.870;2023-04-03T07:41:49;6.30;96.10
23335;DHT22;11839;48.598;8.870;2023-04-03T07:44:17;6.50;97.00
23335;DHT22;11839;48.598;8.870;2023-04-03T07:46:44;6.90;96.40
23335;DHT22;11839;48.598;8.870;2023-04-03T07:49:12;7.00;95.90
23335;DHT22;11839;48.598;8.870;2023-04-03T07:51:40;6.90;96.20
23335;DHT22;11839;48.598;8.870;2023-04-03T07:54:07;6.90;95.80
23335;DHT22;11839;48.598;8.870;2023-04-03T07:56:34;6.90;96.30
23335;DHT22;11839;48.598;8.870;2023-04-03T07:59:01;7.10;95.80
23335;DHT22;11839;48.598;8.870;2023-04-03T08:01:28;7.30;95.60
23335;DHT22;11839;48.598;8.870;2023-04-03T08:03:57;7.20;95.90
23335;DHT22;11839;48.598;8.870;2023-04-03T08:06:24;6.40;96.30
23335;DHT22;11839;48.598;8.870;2023-04-03T08:08:53;6.20;97.00
23335;DHT22;11839;48.598;8.870;2023-04-03T08:11:19;6.10;97.40
23335;DHT22;11839;48.598;8.870;2023-04-03T08:13:46;6.10;97.00
23335;DHT22;11839;48.598;8.870;2023-04-03T08:16:17;5.90;96.70
23335;DHT22;11839;48.598;8.870;2023-04-03T08:18:44;6.00;96.30
23335;DHT22;11839;48.598;8.870;2023-04-03T08:21:12;6.30;96.70
23335;DHT22;11839;48.598;8.870;2023-04-03T08:23:40;6.60;96.10
23335;DHT22;11839;48.598;8.870;2023-04-03T08:26:11;6.50;96.50
23335;DHT22;11839;48.598;8.870;2023-04-03T08:28:38;7.20;97.10
23335;DHT22;11839;48.598;8.870;2023-04-03T08:31:07;6.90;96.40
23335;DHT22;11839;48.598;8.870;2023-04-03T08:33:37;7.20;95.80
23335;DHT22;11839;48.598;8.870;2023-04-03T08:36:05;7.20;95.70
23335;DHT22;11839;48.598;8.870;2023-04-03T08:38:33;7.20;95.50
23335;DHT22;11839;48.598;8.870;2023-04-03T08:41:11;7.00;94.90
23335;DHT22;11839;48.598;8.870;2023-04-03T08:43:56;6.80;96.20
23335;DHT22;11839;48.598;8.870;2023-04-03T08:46:35;6.60;96.60
23335;DHT22;11839;48.598;8.870;2023-04-03T08:49:11;6.80;96.40
23335;DHT22;11839;48.598;8.870;2023-04-03T08:51:46;7.10;95.90
23335;DHT22;11839;48.598;8.870;2023-04-03T08:54:21;7.20;96.10
23335;DHT22;11839;48.598;8.870;2023-04-03T08:56:53;7.30;95.20
23335;DHT22;11839;48.598;8.870;2023-04-03T08:59:26;7.20;95.30
23335;DHT22;11839;48.598;8.870;2023-04-03T09:01:56;6.50;95.40
23335;DHT22;11839;48.598;8.870;2023-04-03T09:04:25;6.80;96.10
23335;DHT22;11839;48.598;8.870;2023-04-03T09:06:58;7.50;95.70
23335;DHT22;11839;48.598;8.870;2023-04-03T09:09:32;8.20;95.30
23335;DHT22;11839;48.598;8.870;2023-04-03T09:12:06;9.00;94.90
23335;DHT22;11839;48.598;8.870;2023-04-03T09:14:40;8.80;92.80
23335;DHT22;11839;48.598;8.870;2023-04-03T09:17:14;8.70;94.00
23335;DHT22;11839;48.598;8.870;2023-04-03T09:19:48;8.60;94.60
23335;DHT22;11839;48.598;8.870;2023-04-03T09:22:18;8.30;95.00
23335;DHT22;11839;48.598;8.870;2023-04-03T09:24:49;7.90;95.00
23335;DHT22;11839;48.598;8.870;2023-04-03T09:27:21;7.40;95.20
23335;DHT22;11839;48.598;8.870;2023-04-03T09:29:49;7.60;94.80
23335;DHT22;11839;48.598;8.870;2023-04-03T09:32:25;8.50;94.60
23335;DHT22;11839;48.598;8.870;2023-04-03T09:34:53;7.70;93.90
23335;DHT22;11839;48.598;8.870;2023-04-03T09:37:34;7.70;93.20
23335;DHT22;11839;48.598;8.870;2023-04-03T09:40:03;7.50;93.80
23335;DHT22;11839;48.598;8.870;2023-04-03T09:42:32;7.50;93.30
23335;DHT22;11839;48.598;8.870;2023-04-03T09:45:01;7.30;93.20
23335;DHT22;11839;48.598;8.870;2023-04-03T09:47:29;7.30;93.60
23335;DHT22;11839;48.598;8.870;2023-04-03T09:50:18;7.50;94.50
23335;DHT22;11839;48.598;8.870;2023-04-03T09:52:47;7.60;93.80
23335;DHT22;11839;48.598;8.870;2023-04-03T09:55:16;7.80;93.20
23335;DHT22;11839;48.598;8.870;2023-04-03T09:57:45;8.20;94.00
23335;DHT22;11839;48.598;8.870;2023-04-03T10:00:21;8.40;92.40
23335;DHT22;11839;48.598;8.870;2023-04-03T10:02:51;8.40;93.00
23335;DHT22;11839;48.598;8.870;2023-04-03T10:05:28;8.20;93.20
23335;DHT22;11839;48.598;8.870;2023-04-03T10:08:08;8.60;92.50
23335;DHT22;11839;48.598;8.870;2023-04-03T10:10:35;8.10;93.20
23335;DHT22;11839;48.598;8.870;2023-04-03T10:13:12;8.00;94.30
23335;DHT22;11839;48.598;8.870;2023-04-03T10:15:42;8.00;95.10
23335;DHT22;11839;48.598;8.870;2023-04-03T10:18:26;7.80;94.80
23335;DHT22;11839;48.598;8.870;2023-04-03T10:20:57;7.60;95.30
23335;DHT22;11839;48.598;8.870;2023-04-03T10:23:30;7.50;95.30
23335;DHT22;11839;48.598;8.870;2023-04-03T10:26:07;8.00;95.30
23335;DHT22;11839;48.598;8.870;2023-04-03T10:28:43;7.80;95.20
23335;DHT22;11839;48.598;8.870;2023-04-03T10:31:16;7.40;95.00
23335;DHT22;11839;48.598;8.870;2023-04-03T10:33:52;7.40;94.90
23335;DHT22;11839;48.598;8.870;2023-04-03T10:36:27;7.20;94.90
23335;DHT22;11839;48.598;8.870;2023-04-03T10:39:04;7.40;94.80
23335;DHT22;11839;48.598;8.870;2023-04-03T10:41:45;7.70;93.40
23335;DHT22;11839;48.598;8.870;2023-04-03T10:44:20;7.70;93.90
23335;DHT22;11839;48.598;8.870;2023-04-03T10:46:53;8.10;92.90
23335;DHT22;11839;48.598;8.870;2023-04-03T10:49:33;8.00;92.50
23335;DHT22;11839;48.598;8.870;2023-04-03T10:52:09;8.20;92.40
23335;DHT22;11839;48.598;8.870;2023-04-03T10:54:40;8.30;92.40
23335;DHT22;11839;48.598;8.870;2023-04-03T10:57:11;8.10;92.20
23335;DHT22;11839;48.598;8.870;2023-04-03T10:59:42;7.80;92.20
23335;DHT22;11839;48.598;8.870;2023-04-03T11:02:14;7.60;92.00
23335;DHT22;11839;48.598;8.870;2023-04-03T11:04:47;7.40;92.70
23335;DHT22;11839;48.598;8.870;2023-04-03T11:07:17;7.60;92.70
23335;DHT22;11839;48.598;8.870;2023-04-03T11:09:49;7.80;92.40
23335;DHT22;11839;48.598;8.870;2023-04-03T11:12:21;8.10;92.40
23335;DHT22;11839;48.598;8.870;2023-04-03T11:14:52;8.10;93.00
23335;DHT22;11839;48.598;8.870;2023-04-03T11:17:27;7.80;93.30
23335;DHT22;11839;48.598;8.870;2023-04-03T11:20:01;7.80;93.80
23335;DHT22;11839;48.598;8.870;2023-04-03T11:22:34;7.60;94.20
23335;DHT22;11839;48.598;8.870;2023-04-03T11:25:04;7.60;94.20
23335;DHT22;11839;48.598;8.870;2023-04-03T11:27:38;7.70;93.80
23335;DHT22;11839;48.598;8.870;2023-04-03T11:30:14;7.50;93.80
23335;DHT22;11839;48.598;8.870;2023-04-03T11:32:59;7.80;93.40
23335;DHT22;11839;48.598;8.870;2023-04-03T11:35:28;8.40;93.30
23335;DHT22;11839;48.598;8.870;2023-04-03T11:37:56;8.60;91.60
23335;DHT22;11839;48.598;8.870;2023-04-03T11:40:25;8.30;91.60
23335;DHT22;11839;48.598;8.870;2023-04-03T11:42:55;8.50;91.50
23335;DHT22;11839;48.598;8.870;2023-04-03T11:45:36;8.80;90.60
23335;DHT22;11839;48.598;8.870;2023-04-03T11:48:06;8.40;91.40
23335;DHT22;11839;48.598;8.870;2023-04-03T11:50:54;8.10;92.30
23335;DHT22;11839;48.598;8.870;2023-04-03T11:53:33;7.70;92.90
23335;DHT22;11839;48.598;8.870;2023-04-03T11:56:03;7.90;93.20
23335;DHT22;11839;48.598;8.870;2023-04-03T11:58:31;7.90;93.30
23335;DHT22;11839;48.598;8.870;2023-04-03T12:01:01;8.10;93.10
23335;DHT22;11839;48.598;8.870;2023-04-03T12:10:13;8.80;92.70
23335;DHT22;11839;48.598;8.870;2023-04-03T12:12:41;8.20;92.40
23335;DHT22;11839;48.598;8.870;2023-04-03T12:15:41;7.70;92.80
23335;DHT22;11839;48.598;8.870;2023-04-03T12:21:17;8.20;93.00
23335;DHT22;11839;48.598;8.870;2023-04-03T12:24:01;8.00;92.70
23335;DHT22;11839;48.598;8.870;2023-04-03T12:26:32;7.60;92.80
23335;DHT22;11839;48.598;8.870;2023-04-03T12:29:02;7.80;93.40
23335;DHT22;11839;48.598;8.870;2023-04-03T12:31:41;7.90;92.50
23335;DHT22;11839;48.598;8.870;2023-04-03T12:34:29;7.80;92.70
23335;DHT22;11839;48.598;8.870;2023-04-03T12:37:03;8.00;92.00
23335;DHT22;11839;48.598;8.870;2023-04-03T12:39:54;8.10;92.30
23335;DHT22;11839;48.598;8.870;2023-04-03T12:45:23;8.50;91.60
23335;DHT22;11839;48.598;8.870;2023-04-03T12:47:53;8.50;90.60
23335;DHT22;11839;48.598;8.870;2023-04-03T12:50:23;8.80;90.90
23335;DHT22;11839;48.598;8.870;2023-04-03T12:53:00;9.10;90.00
23335;DHT22;11839;48.598;8.870;2023-04-03T12:55:28;9.10;88.00
23335;DHT22;11839;48.598;8.870;2023-04-03T12:57:56;8.70;87.70
23335;DHT22;11839;48.598;8.870;2023-04-03T13:00:33;8.10;90.30
23335;DHT22;11839;48.598;8.870;2023-04-03T13:03:03;8.00;90.80
23335;DHT22;11839;48.598;8.870;2023-04-03T13:05:31;8.20;90.30
23335;DHT22;11839;48.598;8.870;2023-04-03T13:08:00;8.00;90.60
23335;DHT22;11839;48.598;8.870;2023-04-03T13:10:29;8.20;90.80
23335;DHT22;11839;48.598;8.870;2023-04-03T13:13:06;8.10;90.60
23335;DHT22;11839;48.598;8.870;2023-04-03T13:15:41;7.90;90.70
23335;DHT22;11839;48.598;8.870;2023-04-03T13:18:22;7.40;90.70
23335;DHT22;11839;48.598;8.870;2023-04-03T13:20:51;7.40;91.60
23335;DHT22;11839;48.598;8.870;2023-04-03T13:23:20;7.60;91.20
23335;DHT22;11839;48.598;8.870;2023-04-03T13:25:48;7.60;91.40
23335;DHT22;11839;48.598;8.870;2023-04-03T13:28:20;7.80;90.90
23335;DHT22;11839;48.598;8.870;2023-04-03T13:31:01;8.10;90.60
23335;DHT22;11839;48.598;8.870;2023-04-03T13:33:31;8.30;90.30
23335;DHT22;11839;48.598;8.870;2023-04-03T13:36:02;8.50;90.30
23335;DHT22;11839;48.598;8.870;2023-04-03T13:38:31;8.60;90.00
23335;DHT22;11839;48.598;8.870;2023-04-03T13:41:02;8.50;89.00
23335;DHT22;11839;48.598;8.870;2023-04-03T13:43:33;8.70;89.90
23335;DHT22;11839;48.598;8.870;2023-04-03T13:46:04;8.70;90.00
23335;DHT22;11839;48.598;8.870;2023-04-03T13:48:37;8.90;88.10
23335;DHT22;11839;48.598;8.870;2023-04-03T13:51:13;8.60;90.50
23335;DHT22;11839;48.598;8.870;2023-04-03T13:53:45;8.20;89.20
23335;DHT22;11839;48.598;8.870;2023-04-03T13:56:20;7.70;90.30
23335;DHT22;11839;48.598;8.870;2023-04-03T13:58:59;7.80;90.30
23335;DHT22;11839;48.598;8.870;2023-04-03T14:01:34;8.20;90.20
23335;DHT22;11839;48.598;8.870;2023-04-03T14:04:13;8.30;90.40
23335;DHT22;11839;48.598;8.870;2023-04-03T14:06:40;8.60;89.50
23335;DHT22;11839;48.598;8.870;2023-04-03T14:09:07;8.90;87.90
23335;DHT22;11839;48.598;8.870;2023-04-03T14:11:34;9.20;87.50
23335;DHT22;11839;48.598;8.870;2023-04-03T14:14:09;8.80;86.10
23335;DHT22;11839;48.598;8.870;2023-04-03T14:16:39;8.70;87.00
23335;DHT22;11839;48.598;8.870;2023-04-03T14:19:07;9.00;87.20
23335;DHT22;11839;48.598;8.870;2023-04-03T14:21:36;8.70;87.40
23335;DHT22;11839;48.598;8.870;2023-04-03T14:24:03;8.60;86.00
23335;DHT22;11839;48.598;8.870;2023-04-03T14:26:30;8.40;87.20
23335;DHT22;11839;48.598;8.870;2023-04-03T14:28:56;8.20;86.00
23335;DHT22;11839;48.598;8.870;2023-04-03T14:31:25;8.30;86.40
23335;DHT22;11839;48.598;8.870;2023-04-03T14:33:52;8.50;86.20
23335;DHT22;11839;48.598;8.870;2023-04-03T14:36:21;8.30;86.30
23335;DHT22;11839;48.598;8.870;2023-04-03T14:38:49;8.10;87.10
23335;DHT22;11839;48.598;8.870;2023-04-03T14:41:19;7.90;86.90
23335;DHT22;11839;48.598;8.870;2023-04-03T14:43:47;7.80;88.20
23335;DHT22;11839;48.598;8.870;2023-04-03T14:46:17;7.90;88.70
23335;DHT22;11839;48.598;8.870;2023-04-03T14:48:46;8.10;87.10
23335;DHT22;11839;48.598;8.870;2023-04-03T14:51:14;8.10;87.90
23335;DHT22;11839;48.598;8.870;2023-04-03T14:53:42;8.30;86.80
23335;DHT22;11839;48.598;8.870;2023-04-03T14:56:12;8.10;86.40
23335;DHT22;11839;48.598;8.870;2023-04-03T14:58:39;8.30;86.10
23335;DHT22;11839;48.598;8.870;2023-04-03T15:01:06;8.60;84.30
23335;DHT22;11839;48.598;8.870;2023-04-03T15:03:33;8.60;83.90
23335;DHT22;11839;48.598;8.870;2023-04-03T15:06:01;8.50;84.30
23335;DHT22;11839;48.598;8.870;2023-04-03T15:08:28;8.50;83.80
23335;DHT22;11839;48.598;8.870;2023-04-03T15:10:56;8.70;83.90
23335;DHT22;11839;48.598;8.870;2023-04-03T15:13:24;8.50;85.00
23335;DHT22;11839;48.598;8.870;2023-04-03T15:15:52;8.40;85.60
23335;DHT22;11839;48.598;8.870;2023-04-03T15:18:21;8.20;85.70
23335;DHT22;11839;48.598;8.870;2023-04-03T15:20:48;8.30;86.10
23335;DHT22;11839;48.598;8.870;2023-04-03T15:23:17;8.60;85.90
23335;DHT22;11839;48.598;8.870;2023-04-03T15:25:45;8.90;84.50
23335;DHT22;11839;48.598;8.870;2023-04-03T15:28:18;8.60;84.40
23335;DHT22;11839;48.598;8.870;2023-04-03T15:30:46;8.40;86.10
23335;DHT22;11839;48.598;8.870;2023-04-03T15:33:13;8.30;87.20
23335;DHT22;11839;48.598;8.870;2023-04-03T15:35:41;8.20;86.00
23335;DHT22;11839;48.598;8.870;2023-04-03T15:38:08;7.80;86.20
23335;DHT22;11839;48.598;8.870;2023-04-03T15:40:36;8.10;86.70
23335;DHT22;11839;48.598;8.870;2023-04-03T15:43:04;8.00;86.30
23335;DHT22;11839;48.598;8.870;2023-04-03T15:45:32;7.90;86.90
23335;DHT22;11839;48.598;8.870;2023-04-03T15:48:00;8.00;86.10
23335;DHT22;11839;48.598;8.870;2023-04-03T15:50:27;8.20;85.10
23335;DHT22;11839;48.598;8.870;2023-04-03T15:52:54;8.60;86.00
23335;DHT22;11839;48.598;8.870;2023-04-03T15:55:24;8.90;82.60
23335;DHT22;11839;48.598;8.870;2023-04-03T15:57:53;9.30;81.70
23335;DHT22;11839;48.598;8.870;2023-04-03T16:00:20;9.00;81.50
23335;DHT22;11839;48.598;8.870;2023-04-03T16:02:49;9.00;83.10
23335;DHT22;11839;48.598;8.870;2023-04-03T16:05:17;9.00;83.00
23335;DHT22;11839;48.598;8.870;2023-04-03T16:07:45;8.60;83.50
23335;DHT22;11839;48.598;8.870;2023-04-03T16:10:16;8.00;84.60
23335;DHT22;11839;48.598;8.870;2023-04-03T16:12:43;7.90;84.10